Time;durP1;ratioP1;P1;durP2;ratioP2;P2;SDS_P1;SDS_P2;PMS_P1;PMS_P2;Temp;Humidity;BMP_temperature;BMP_pressure;BME280_temperature;BME280_humidity;BME280_pressure;Samples;Min_cycle;Max_cycle;Signal;HPM_P1;HPM_P2
2022/06/02 00:02:32;;;;;;;23.13;15.45;;;8.60;99.90;;;;;;4899284;29;20119;-90
2022/06/02 00:05:13;;;;;;;20.58;15.32;;;8.60;99.90;;;;;;4881378;29;20120;-87
2022/06/02 00:08:05;;;;;;;22.52;15.77;;;8.60;99.90;;;;;;4896832;29;20048;-86
2022/06/02 00:10:42;;;;;;;21.27;14.95;;;8.60;99.90;;;;;;4881122;29;20056;-87
2022/06/02 00:13:18;;;;;;;24.50;16.42;;;8.50;99.90;;;;;;4897078;29;20055;-86
2022/06/02 00:15:52;;;;;;;26.05;16.70;;;8.50;99.90;;;;;;4880978;29;20092;-87
2022/06/02 00:18:38;;;;;;;;;;;8.50;99.90;;;;;;4868242;29;20083;-87
2022/06/02 00:21:22;;;;;;;22.13;15.43;;;8.40;99.90;;;;;;4881170;29;20423;-85
2022/06/02 00:23:50;;;;;;;22.55;15.52;;;8.60;99.90;;;;;;4896152;29;20525;-87
2022/06/02 00:26:34;;;;;;;21.17;15.82;;;8.40;99.90;;;;;;4865331;29;20052;-85
2022/06/02 00:29:11;;;;;;;23.70;16.85;;;8.40;99.90;;;;;;4896546;29;20504;-85
2022/06/02 00:31:56;;;;;;;24.20;16.60;;;8.30;99.90;;;;;;4880819;29;20060;-87
2022/06/02 00:34:39;;;;;;;22.80;16.27;;;8.30;99.90;;;;;;4866917;29;20068;-86
2022/06/02 00:37:14;;;;;;;23.25;16.80;;;8.30;99.90;;;;;;4896540;29;20049;-85
2022/06/02 00:39:40;;;;;;;24.40;17.80;;;8.20;99.90;;;;;;4880733;29;20053;-85
2022/06/02 00:42:12;;;;;;;26.48;16.52;;;8.20;99.90;;;;;;4881110;29;20108;-85
2022/06/02 00:44:45;;;;;;;30.42;18.25;;;8.20;99.90;;;;;;4895826;29;20060;-87
2022/06/02 00:47:28;;;;;;;27.27;17.50;;;8.20;99.90;;;;;;4880697;29;20124;-86
2022/06/02 00:50:09;;;;;;;27.50;17.80;;;8.30;99.90;;;;;;4880887;29;20056;-86
2022/06/02 00:52:40;;;;;;;29.30;18.10;;;8.20;99.90;;;;;;4880264;29;20064;-86
2022/06/02 00:59:03;;;;;;;26.60;18.60;;;8.10;99.90;;;;;;4842888;29;20502;-86
2022/06/02 01:01:34;;;;;;;28.80;19.67;;;8.00;99.90;;;;;;4895706;29;20057;-95
2022/06/02 01:04:01;;;;;;;27.08;19.08;;;8.10;99.90;;;;;;4880365;29;20068;-86
2022/06/02 01:06:45;;;;;;;36.40;21.50;;;8.90;99.90;;;;;;4865354;29;20128;-85
2022/06/02 01:09:17;;;;;;;27.80;20.65;;;8.00;99.90;;;;;;4895582;29;20064;-85
2022/06/02 01:11:55;;;;;;;30.25;20.60;;;8.10;99.90;;;;;;4864560;29;20092;-84
2022/06/02 01:14:43;;;;;;;31.23;20.10;;;8.00;99.90;;;;;;4896025;29;20139;-85
2022/06/02 01:17:15;;;;;;;30.20;20.13;;;8.00;99.90;;;;;;4895764;29;20052;-86
2022/06/02 01:19:51;;;;;;;32.80;21.48;;;8.00;99.90;;;;;;4864373;29;20139;-86
2022/06/02 01:22:25;;;;;;;32.28;22.27;;;8.00;99.90;;;;;;4880098;29;20060;-85
2022/06/02 01:25:10;;;;;;;;;;;8.00;99.90;;;;;;4895708;29;20096;-86
2022/06/02 01:27:56;;;;;;;35.33;21.73;;;8.00;99.90;;;;;;4895511;29;20348;-85
2022/06/02 01:30:42;;;;;;;32.80;21.70;;;7.90;99.90;;;;;;4895592;29;20052;-85
2022/06/02 01:33:30;;;;;;;31.05;21.60;;;7.90;99.90;;;;;;4879853;29;20418;-85
2022/06/02 01:36:23;;;;;;;31.25;20.60;;;7.90;99.90;;;;;;4880967;29;20129;-86
2022/06/02 01:39:16;;;;;;;33.05;21.80;;;7.80;99.90;;;;;;4866486;29;20048;-85
2022/06/02 01:41:58;;;;;;;31.55;21.02;;;7.80;99.90;;;;;;4879646;29;20553;-85
2022/06/02 01:44:55;;;;;;;32.70;21.15;;;7.70;99.90;;;;;;4894948;29;20056;-86
2022/06/02 01:47:36;;;;;;;34.53;22.00;;;7.70;99.90;;;;;;4882878;29;20099;-85
2022/06/02 01:50:13;;;;;;;35.55;21.83;;;7.70;99.90;;;;;;4865586;29;20068;-85
2022/06/02 01:52:49;;;;;;;31.35;21.38;;;7.60;99.90;;;;;;4895017;29;20461;-86
2022/06/02 01:55:44;;;;;;;36.28;22.45;;;7.60;99.90;;;;;;4880409;29;20123;-85
2022/06/02 01:58:15;;;;;;;40.35;24.17;;;8.30;99.90;;;;;;4845992;29;20069;-85
2022/06/02 02:00:41;;;;;;;37.55;23.27;;;7.60;99.90;;;;;;4895060;29;20060;-85
2022/06/02 02:03:33;;;;;;;30.15;21.35;;;7.50;99.90;;;;;;4886739;29;20108;-88
2022/06/02 02:06:17;;;;;;;36.50;22.92;;;7.50;99.90;;;;;;4896133;29;20052;-85
2022/06/02 02:09:15;;;;;;;37.53;24.65;;;7.50;99.90;;;;;;4895812;29;20056;-84
2022/06/02 02:11:49;;;;;;;32.78;21.88;;;7.50;99.90;;;;;;4893731;29;20071;-86
2022/06/02 02:14:56;;;;;;;32.25;21.33;;;7.50;99.90;;;;;;4879858;29;20070;-85
2022/06/02 02:17:49;;;;;;;31.45;21.48;;;7.40;99.90;;;;;;4834547;29;20057;-85
2022/06/02 02:20:30;;;;;;;34.30;22.40;;;7.40;99.90;;;;;;4864685;29;20135;-87
2022/06/02 02:23:01;;;;;;;32.72;21.83;;;7.30;99.90;;;;;;4894765;29;20121;-89
2022/06/02 02:25:37;;;;;;;41.17;25.30;;;7.30;99.90;;;;;;4879764;29;20044;-86
2022/06/02 02:28:21;;;;;;;32.60;21.95;;;7.30;99.90;;;;;;4879325;29;20116;-86
2022/06/02 02:31:08;;;;;;;32.30;21.88;;;7.30;99.90;;;;;;4895306;29;20053;-86
2022/06/02 02:33:49;;;;;;;36.83;22.98;;;7.30;99.90;;;;;;4880196;29;20064;-86
2022/06/02 02:36:30;;;;;;;39.58;23.80;;;7.20;99.90;;;;;;4896131;29;20490;-86
2022/06/02 02:39:08;;;;;;;35.15;23.63;;;7.20;99.90;;;;;;4897549;29;20044;-86
2022/06/02 02:41:36;;;;;;;38.90;24.52;;;7.20;99.90;;;;;;4881386;29;20151;-85
2022/06/02 02:44:36;;;;;;;43.20;26.33;;;7.20;99.90;;;;;;4879291;29;20490;-87
2022/06/02 02:47:23;;;;;;;42.90;26.85;;;7.20;99.90;;;;;;4879605;29;20071;-86
2022/06/02 02:49:54;;;;;;;44.30;27.88;;;7.20;99.90;;;;;;4868812;29;20393;-85
2022/06/02 02:52:36;;;;;;;49.30;28.40;;;7.20;99.90;;;;;;4898892;29;20503;-86
2022/06/02 02:55:05;;;;;;;41.95;27.42;;;7.60;99.90;;;;;;4868378;29;20082;-85
2022/06/02 02:57:54;;;;;;;45.63;28.13;;;7.80;99.90;;;;;;4867395;29;20063;-87
2022/06/02 03:00:33;;;;;;;46.83;28.65;;;7.20;99.90;;;;;;4885320;29;20127;-85
2022/06/02 03:03:16;;;;;;;43.53;27.50;;;7.20;99.90;;;;;;4868371;29;20048;-86
2022/06/02 03:06:06;;;;;;;48.30;28.90;;;7.20;99.90;;;;;;4868199;29;20041;-86
2022/06/02 03:09:02;;;;;;;43.60;27.17;;;7.30;99.90;;;;;;4867242;29;20056;-87
2022/06/02 03:11:39;;;;;;;43.25;27.38;;;8.20;99.90;;;;;;4882486;29;20520;-86
2022/06/02 03:14:30;;;;;;;50.00;29.13;;;7.20;99.90;;;;;;4898078;29;20381;-85
2022/06/02 03:17:32;;;;;;;48.13;28.17;;;7.20;99.90;;;;;;4882072;29;20155;-86
2022/06/02 03:20:28;;;;;;;46.55;28.75;;;7.20;99.90;;;;;;4884364;29;20119;-86
2022/06/02 03:23:22;;;;;;;48.72;28.88;;;7.20;99.90;;;;;;4883674;29;20059;-86
2022/06/02 03:26:01;;;;;;;47.03;28.13;;;7.30;99.90;;;;;;4897028;29;20394;-86
2022/06/02 03:28:39;;;;;;;43.05;28.58;;;7.20;99.90;;;;;;4867526;29;20059;-85
2022/06/02 03:31:12;;;;;;;42.03;27.70;;;7.30;99.90;;;;;;4897590;29;20144;-85
2022/06/02 03:34:06;;;;;;;49.92;30.05;;;7.30;99.90;;;;;;4897699;29;20053;-87
2022/06/02 03:37:04;;;;;;;45.33;29.35;;;7.20;99.90;;;;;;4866124;29;20589;-88
2022/06/02 03:39:51;;;;;;;48.50;29.27;;;7.30;99.90;;;;;;4865903;29;20099;-86
2022/06/02 03:42:44;;;;;;;44.88;28.25;;;7.30;99.90;;;;;;4897419;29;20056;-86
2022/06/02 03:45:17;;;;;;;41.72;28.15;;;7.40;99.90;;;;;;4896420;29;20065;-85
2022/06/02 03:47:51;;;;;;;39.70;25.98;;;7.80;99.90;;;;;;4881808;29;20053;-87
2022/06/02 03:50:48;;;;;;;42.22;26.75;;;7.60;99.90;;;;;;4897328;29;20063;-85
2022/06/02 03:53:32;;;;;;;34.75;24.10;;;7.80;99.90;;;;;;4896986;29;20066;-87
2022/06/02 03:56:35;;;;;;;35.30;24.70;;;7.90;99.90;;;;;;4896968;29;20096;-87
2022/06/02 03:59:21;;;;;;;33.72;23.60;;;8.00;99.90;;;;;;4896702;29;20061;-86
2022/06/02 04:01:58;;;;;;;26.52;20.83;;;8.00;99.90;;;;;;4895640;29;20067;-87
2022/06/02 04:05:14;;;;;;;29.17;21.40;;;8.10;99.90;;;;;;4866791;29;20111;-86
2022/06/02 04:08:03;;;;;;;26.95;20.27;;;8.10;99.90;;;;;;4869600;29;20067;-86
2022/06/02 04:10:41;;;;;;;31.23;21.05;;;8.10;99.90;;;;;;4898241;29;20077;-88
2022/06/02 04:13:37;;;;;;;30.42;22.42;;;8.10;99.90;;;;;;4890081;29;20061;-87
2022/06/02 04:16:15;;;;;;;30.52;22.10;;;9.40;99.90;;;;;;4884088;29;20112;-88
2022/06/02 04:22:24;;;;;;;29.23;22.42;;;8.20;99.90;;;;;;4882546;29;20104;-86
2022/06/02 04:25:27;;;;;;;31.88;22.42;;;8.20;99.90;;;;;;4884549;29;20437;-86
2022/06/02 04:28:02;;;;;;;31.67;22.50;;;8.20;99.90;;;;;;4897439;29;20528;-87
2022/06/02 04:30:38;;;;;;;35.97;23.13;;;8.30;99.90;;;;;;4882826;29;20056;-86
2022/06/02 04:33:32;;;;;;;34.13;24.10;;;8.40;99.90;;;;;;4881600;29;20048;-86
2022/06/02 04:36:13;;;;;;;31.25;22.83;;;8.50;99.90;;;;;;4882706;29;20060;-89
2022/06/02 04:39:11;;;;;;;28.20;23.52;;;8.70;99.90;;;;;;4896835;29;20057;-88
2022/06/02 04:42:01;;;;;;;25.00;19.15;;;9.40;99.90;;;;;;4881126;29;20083;-86
2022/06/02 04:45:04;;;;;;;19.52;17.52;;;10.30;99.90;;;;;;4896176;29;20123;-87
2022/06/02 04:47:49;;;;;;;15.82;14.15;;;11.40;99.90;;;;;;4896330;29;20135;-87
2022/06/02 04:50:35;;;;;;;15.88;12.95;;;12.10;99.90;;;;;;4880548;29;20052;-88
2022/06/02 04:53:25;;;;;;;13.52;12.13;;;12.80;99.90;;;;;;4867019;29;20409;-86
2022/06/02 04:56:25;;;;;;;15.10;12.40;;;13.50;99.90;;;;;;4896616;29;20088;-87
2022/06/02 04:59:21;;;;;;;12.13;11.02;;;13.70;99.90;;;;;;4895842;29;20121;-88
2022/06/02 05:02:05;;;;;;;12.00;10.90;;;14.10;99.90;;;;;;4880195;29;20056;-88
2022/06/02 05:04:51;;;;;;;11.38;10.23;;;14.20;99.90;;;;;;4895647;29;20064;-88
2022/06/02 05:07:54;;;;;;;10.65;9.65;;;14.60;99.90;;;;;;4880437;29;20466;-88
2022/06/02 05:10:35;;;;;;;10.07;9.07;;;14.60;99.90;;;;;;4895604;29;20068;-89
2022/06/02 05:13:15;;;;;;;22.83;12.15;;;14.50;99.90;;;;;;4895422;29;20119;-88
2022/06/02 05:15:42;;;;;;;10.60;9.60;;;14.90;99.90;;;;;;4895175;29;20060;-88
2022/06/02 05:18:14;;;;;;;9.35;8.50;;;14.80;99.90;;;;;;4895187;29;20434;-90
2022/06/02 05:20:45;;;;;;;9.38;8.48;;;15.20;99.90;;;;;;4880141;29;20188;-88
2022/06/02 05:23:30;;;;;;;11.13;9.80;;;15.70;99.90;;;;;;4879406;29;20056;-88
2022/06/02 05:26:09;;;;;;;9.50;8.50;;;15.90;99.90;;;;;;4864740;29;20052;-88
2022/06/02 05:29:08;;;;;;;8.65;7.85;;;16.10;99.90;;;;;;4879043;29;20056;-89
2022/06/02 05:31:47;;;;;;;8.68;7.88;;;16.20;99.90;;;;;;4893355;29;20060;-89
2022/06/02 05:34:18;;;;;;;9.00;8.30;;;16.10;99.90;;;;;;4879640;29;20055;-89
2022/06/02 05:36:53;;;;;;;9.35;8.52;;;16.70;99.90;;;;;;4895304;29;20063;-91
2022/06/02 05:39:47;;;;;;;8.48;7.78;;;17.10;99.90;;;;;;4894858;29;20047;-88
2022/06/02 05:42:26;;;;;;;8.18;7.47;;;17.10;99.90;;;;;;4878432;29;20053;-89
2022/06/02 05:45:11;;;;;;;8.43;7.72;;;16.90;99.90;;;;;;4863718;29;20060;-90
2022/06/02 05:48:10;;;;;;;7.30;6.70;;;17.10;99.90;;;;;;4874150;29;20397;-89
2022/06/02 05:50:44;;;;;;;7.05;6.43;;;17.10;99.90;;;;;;4894373;29;20052;-89
2022/06/02 05:53:35;;;;;;;7.38;6.78;;;17.10;99.90;;;;;;4878899;29;20049;-90
2022/06/02 05:56:07;;;;;;;7.50;6.82;;;17.60;99.90;;;;;;4878576;29;20063;-91
2022/06/02 05:58:52;;;;;;;7.65;6.95;;;17.40;99.90;;;;;;4863143;29;20108;-91
2022/06/02 06:01:24;;;;;;;6.68;6.15;;;18.20;99.90;;;;;;4877893;29;20100;-89
2022/06/02 06:03:59;;;;;;;6.60;6.10;;;17.90;99.90;;;;;;4894506;29;20053;-89
2022/06/02 06:07:01;;;;;;;6.40;5.75;;;18.30;99.90;;;;;;4861758;29;20127;-89
2022/06/02 06:09:46;;;;;;;6.50;6.00;;;18.00;99.90;;;;;;4879812;29;20538;-89
2022/06/02 06:12:24;;;;;;;6.15;5.65;;;17.90;99.90;;;;;;4877898;29;20513;-92
2022/06/02 06:14:59;;;;;;;5.80;5.13;;;18.90;99.90;;;;;;4878954;29;20056;-90
2022/06/02 06:17:40;;;;;;;5.45;4.55;;;18.70;99.90;;;;;;4914838;29;20051;-91
2022/06/02 06:20:46;;;;;;;5.65;5.10;;;18.10;99.90;;;;;;4872446;29;20057;-94
2022/06/02 06:23:13;;;;;;;5.70;5.20;;;19.30;99.90;;;;;;4893573;29;20485;-93
2022/06/02 06:25:47;;;;;;;5.07;4.68;;;18.40;99.90;;;;;;4897876;29;20446;-91
2022/06/02 06:28:20;;;;;;;4.82;4.43;;;18.70;99.90;;;;;;4868014;29;20063;-89
2022/06/02 06:31:01;;;;;;;4.53;3.55;;;19.50;99.90;;;;;;4869021;29;20387;-91
2022/06/02 06:33:33;;;;;;;4.18;3.85;;;18.90;99.90;;;;;;4883019;29;20099;-90
2022/06/02 06:36:11;;;;;;;6.47;4.63;;;18.70;99.90;;;;;;4882396;29;20087;-90
2022/06/02 06:39:18;;;;;;;3.92;3.47;;;19.00;99.90;;;;;;4882042;29;20100;-89
2022/06/02 06:41:47;;;;;;;4.82;3.78;;;19.30;99.90;;;;;;4854300;29;20085;-90
2022/06/02 06:44:26;;;;;;;5.18;3.40;;;19.50;99.90;;;;;;4881960;29;20067;-88
2022/06/02 06:47:04;;;;;;;2.92;2.72;;;19.80;99.90;;;;;;4898256;29;20056;-89
2022/06/02 06:49:52;;;;;;;5.70;2.95;;;19.10;99.90;;;;;;4875395;29;20598;-90
2022/06/02 06:52:18;;;;;;;3.00;2.65;;;19.30;99.90;;;;;;4889491;29;20067;-91
2022/06/02 06:55:00;;;;;;;3.00;2.50;;;18.80;99.90;;;;;;4890167;29;20049;-91
2022/06/02 06:57:40;;;;;;;2.80;2.25;;;19.60;99.90;;;;;;4898708;29;20095;-91
2022/06/02 07:00:11;;;;;;;2.78;2.20;;;20.00;99.90;;;;;;4882685;29;20052;-90
2022/06/02 07:03:02;;;;;;;2.90;2.53;;;20.00;99.90;;;;;;4882871;29;20116;-92
2022/06/02 07:06:10;;;;;;;3.03;2.42;;;19.60;99.90;;;;;;4884733;29;20063;-93
2022/06/02 07:09:00;;;;;;;2.70;2.45;;;19.40;99.90;;;;;;4881994;29;20049;-91
2022/06/02 07:15:09;;;;;;;4.05;1.95;;;19.40;99.90;;;;;;4872049;29;20072;-91
2022/06/02 07:18:03;;;;;;;3.00;1.90;;;19.60;99.90;;;;;;4879068;29;20067;-91
2022/06/02 07:20:48;;;;;;;4.03;2.03;;;19.60;99.90;;;;;;4883029;29;20104;-91
2022/06/02 07:23:41;;;;;;;4.60;2.33;;;19.10;99.90;;;;;;4868792;29;20089;-91
2022/06/02 07:26:07;;;;;;;3.65;2.20;;;19.10;99.90;;;;;;4897691;29;20107;-91
2022/06/02 07:28:43;;;;;;;3.30;2.08;;;19.00;99.90;;;;;;4897580;29;20088;-91
2022/06/02 07:31:43;;;;;;;2.45;2.20;;;19.60;99.90;;;;;;4867101;29;20092;-91
2022/06/02 07:34:24;;;;;;;2.83;2.40;;;18.40;99.90;;;;;;4854117;29;20072;-91
2022/06/02 07:37:44;;;;;;;4.53;2.20;;;17.70;99.90;;;;;;4897453;29;20044;-90
2022/06/02 07:40:28;;;;;;;4.93;2.50;;;18.60;99.90;;;;;;4842699;29;20049;-91
2022/06/02 07:43:34;;;;;;;3.72;2.13;;;18.00;99.90;;;;;;4892163;29;20060;-91
2022/06/02 07:46:07;;;;;;;3.15;1.98;;;17.30;99.90;;;;;;4868434;29;20053;-91
2022/06/02 07:48:55;;;;;;;3.05;2.00;;;17.30;99.90;;;;;;4881142;29;20059;-91
2022/06/02 07:51:39;;;;;;;1.90;1.70;;;17.70;99.90;;;;;;4897040;29;20433;-91
2022/06/02 07:54:07;;;;;;;;;;;18.40;99.90;;;;;;4868015;29;20088;-91
2022/06/02 07:57:23;;;;;;;3.33;2.15;;;18.60;99.90;;;;;;4880975;29;19931;-91
2022/06/02 08:00:04;;;;;;;2.45;1.90;;;19.10;99.90;;;;;;4872628;29;20597;-92
2022/06/02 08:02:40;;;;;;;3.58;1.58;;;20.00;99.90;;;;;;4865766;29;20429;-90
2022/06/02 08:05:19;;;;;;;3.05;1.90;;;18.90;99.90;;;;;;4866245;29;20044;-91
2022/06/02 08:07:56;;;;;;;3.40;2.15;;;18.60;99.90;;;;;;4880937;29;20056;-90
2022/06/02 08:11:00;;;;;;;3.33;2.00;;;17.70;99.90;;;;;;4865611;29;20075;-91
2022/06/02 08:13:29;;;;;;;2.95;1.90;;;18.40;99.90;;;;;;4896331;29;20108;-90
2022/06/02 08:16:01;;;;;;;3.75;2.20;;;18.20;99.90;;;;;;4896637;29;20120;-90
2022/06/02 08:18:48;;;;;;;2.25;1.88;;;18.90;99.90;;;;;;4880582;29;20080;-92
2022/06/02 08:21:27;;;;;;;2.63;1.83;;;20.00;99.90;;;;;;4882891;29;20135;-91
2022/06/02 08:24:10;;;;;;;2.13;1.92;;;19.40;99.90;;;;;;4896270;29;20051;-90
2022/06/02 08:26:58;;;;;;;2.85;2.20;;;18.50;99.90;;;;;;4860904;29;20063;-91
2022/06/02 08:30:03;;;;;;;4.55;1.90;;;17.90;99.90;;;;;;4883293;29;20048;-91
2022/06/02 08:32:39;;;;;;;2.28;1.70;;;17.40;99.90;;;;;;4895727;29;20076;-91
2022/06/02 08:35:16;;;;;;;3.55;2.05;;;17.70;99.90;;;;;;4896682;29;20060;-90
2022/06/02 08:37:48;;;;;;;3.70;1.80;;;19.00;99.90;;;;;;4896404;29;20052;-93
2022/06/02 08:40:36;;;;;;;4.95;1.80;;;19.30;99.90;;;;;;4896676;29;20389;-92
2022/06/02 08:43:42;;;;;;;2.15;1.77;;;19.70;99.90;;;;;;4891671;29;20045;-91
2022/06/02 08:46:38;;;;;;;2.42;1.63;;;22.10;99.90;;;;;;4892714;29;20052;-88
2022/06/02 08:49:32;;;;;;;2.80;1.70;;;19.80;99.90;;;;;;4860864;29;20052;-91
2022/06/02 08:52:22;;;;;;;2.67;1.98;;;19.10;99.90;;;;;;4858554;29;20049;-93
2022/06/02 08:55:27;;;;;;;3.63;2.08;;;20.00;99.90;;;;;;4892597;29;20036;-92
2022/06/02 08:58:07;;;;;;;2.50;1.77;;;21.40;99.90;;;;;;4862950;29;20124;-95
2022/06/02 09:00:36;;;;;;;2.50;1.70;;;21.20;99.90;;;;;;4877101;29;20044;-92
2022/06/02 09:03:25;;;;;;;1.77;1.60;;;21.20;99.90;;;;;;4894912;29;20397;-91
2022/06/02 09:06:23;;;;;;;2.85;1.52;;;20.60;99.90;;;;;;4879779;29;20120;-90
2022/06/02 09:09:20;;;;;;;1.65;1.50;;;19.20;99.90;;;;;;4879679;29;20047;-90
2022/06/02 09:12:16;;;;;;;4.43;1.85;;;20.00;99.90;;;;;;4894918;29;20544;-92
2022/06/02 09:15:04;;;;;;;2.60;1.95;;;20.60;99.90;;;;;;4909650;29;20081;-92
2022/06/02 09:17:35;;;;;;;4.40;2.10;;;20.90;99.90;;;;;;4894708;29;20422;-90
2022/06/02 09:20:28;;;;;;;6.05;2.10;;;21.20;99.90;;;;;;4879531;29;20133;-90
2022/06/02 09:23:31;;;;;;;3.38;1.90;;;21.80;99.90;;;;;;4866158;29;20083;-90
2022/06/02 09:26:18;;;;;;;2.80;1.90;;;21.80;99.90;;;;;;4877966;29;20103;-93
2022/06/02 09:29:19;;;;;;;2.08;1.80;;;21.30;99.90;;;;;;4895078;29;20048;-92
2022/06/02 09:32:10;;;;;;;3.45;1.83;;;21.30;99.90;;;;;;4878975;29;20123;-92
2022/06/02 09:34:52;;;;;;;3.63;2.80;;;20.60;99.90;;;;;;4861506;29;20076;-92
2022/06/02 09:37:46;;;;;;;4.00;2.13;;;19.80;99.90;;;;;;4874823;29;20048;-92
2022/06/02 09:40:42;;;;;;;5.35;2.70;;;20.00;99.90;;;;;;4881895;29;20055;-92
2022/06/02 09:43:11;;;;;;;2.38;1.70;;;20.50;99.90;;;;;;4893338;29;20473;-92
2022/06/02 09:46:05;;;;;;;2.60;2.05;;;21.50;99.90;;;;;;4931934;29;20051;-92
2022/06/02 09:48:49;;;;;;;2.40;1.60;;;21.60;99.90;;;;;;4914462;29;20071;-92
2022/06/02 09:51:14;;;;;;;4.70;2.20;;;20.80;99.90;;;;;;4897184;29;20056;-90
2022/06/02 09:54:05;;;;;;;3.47;2.10;;;20.60;99.90;;;;;;4880357;29;20048;-89
2022/06/02 09:56:50;;;;;;;4.18;1.90;;;20.90;99.90;;;;;;4880734;29;20500;-91
2022/06/02 09:59:21;;;;;;;2.53;1.50;;;19.50;99.90;;;;;;4910994;29;20048;-89
2022/06/02 10:01:55;;;;;;;3.58;1.90;;;19.20;99.90;;;;;;4880686;29;20048;-90
2022/06/02 10:04:42;;;;;;;5.32;2.10;;;18.70;99.90;;;;;;4866287;29;20110;-91
2022/06/02 10:07:07;;;;;;;2.53;1.70;;;18.80;99.90;;;;;;4880743;29;20143;-91
2022/06/02 10:10:01;;;;;;;2.38;1.55;;;19.70;99.90;;;;;;4912100;29;20135;-93
2022/06/02 10:12:55;;;;;;;4.40;1.90;;;20.20;99.90;;;;;;4927402;29;20052;-93
2022/06/02 10:15:32;;;;;;;2.65;1.60;;;21.20;99.90;;;;;;4915132;29;20066;-92
2022/06/02 10:18:18;;;;;;;2.72;1.90;;;21.90;99.90;;;;;;4898343;29;20386;-89
2022/06/02 10:21:23;;;;;;;3.22;2.00;;;21.40;99.90;;;;;;4883112;29;20051;-89
2022/06/02 10:24:10;;;;;;;4.70;2.45;;;20.60;99.90;;;;;;4898215;29;20068;-88
2022/06/02 10:27:01;;;;;;;2.53;1.50;;;19.50;99.90;;;;;;4899083;29;20493;-89
2022/06/02 10:29:43;;;;;;;2.00;1.50;;;19.30;99.90;;;;;;4914856;29;20536;-93
2022/06/02 10:32:42;;;;;;;2.33;1.70;;;19.10;99.90;;;;;;4928817;29;20060;-91
2022/06/02 10:35:46;;;;;;;2.88;1.80;;;19.20;99.90;;;;;;4890714;29;20428;-91
2022/06/02 10:38:15;;;;;;;;;;;20.30;99.90;;;;;;4914707;29;20774;-91
2022/06/02 10:41:18;;;;;;;2.88;1.60;;;21.00;99.90;;;;;;4884604;29;20398;-93
2022/06/02 10:44:03;;;;;;;1.52;1.30;;;21.20;99.90;;;;;;4913881;29;20060;-92
2022/06/02 10:46:54;;;;;;;2.63;1.60;;;21.10;99.90;;;;;;4900704;29;20086;-95
2022/06/02 10:49:26;;;;;;;2.40;1.50;;;21.40;99.90;;;;;;4899803;29;20067;-93
2022/06/02 10:52:10;;;;;;;2.47;1.50;;;20.80;99.90;;;;;;4883549;29;20066;-92
2022/06/02 10:54:58;;;;;;;2.45;1.67;;;20.40;99.90;;;;;;4915342;29;20051;-92
2022/06/02 10:57:55;;;;;;;3.30;1.70;;;19.90;99.90;;;;;;4900754;29;20059;-90
2022/06/02 11:00:39;;;;;;;1.67;1.40;;;19.60;99.90;;;;;;4931244;29;20500;-90
2022/06/02 11:03:42;;;;;;;2.35;1.63;;;19.40;99.90;;;;;;4914052;29;20055;-91
2022/06/02 11:06:33;;;;;;;2.60;1.50;;;19.70;99.90;;;;;;4916134;29;20056;-92
2022/06/02 11:09:44;;;;;;;1.60;1.30;;;19.50;99.90;;;;;;4896739;29;20321;-89
2022/06/02 11:12:36;;;;;;;2.30;1.52;;;19.50;99.90;;;;;;4902337;29;20571;-93
2022/06/02 11:15:20;;;;;;;3.60;1.90;;;19.30;99.90;;;;;;4917586;29;20227;-89
2022/06/02 11:17:46;;;;;;;1.67;1.58;;;20.10;99.90;;;;;;4917716;29;20062;-89
2022/06/02 11:20:25;;;;;;;4.47;1.98;;;20.40;99.90;;;;;;4917713;29;20047;-90
2022/06/02 11:23:28;;;;;;;3.88;1.70;;;21.00;99.90;;;;;;4898447;29;20110;-91
2022/06/02 11:26:31;;;;;;;2.60;1.80;;;20.30;99.90;;;;;;4899935;29;20373;-91
2022/06/02 11:29:15;;;;;;;3.30;1.70;;;19.80;99.90;;;;;;4914786;29;20063;-89
2022/06/02 11:32:08;;;;;;;2.70;1.80;;;19.40;99.90;;;;;;4930829;29;20139;-91
2022/06/02 11:34:59;;;;;;;2.38;1.75;;;19.20;99.90;;;;;;4892124;29;20092;-89
2022/06/02 11:37:53;;;;;;;2.08;1.80;;;19.80;99.90;;;;;;4916159;29;20508;-92
2022/06/02 11:40:33;;;;;;;1.75;1.60;;;20.20;99.90;;;;;;4915816;29;20391;-90
2022/06/02 11:43:06;;;;;;;2.03;1.60;;;20.40;99.90;;;;;;4931589;29;20126;-91
2022/06/02 11:45:54;;;;;;;1.80;1.38;;;20.70;99.90;;;;;;4899785;29;20119;-88
2022/06/02 11:48:53;;;;;;;3.03;1.50;;;20.90;99.90;;;;;;4917289;29;20051;-88
2022/06/02 11:51:30;;;;;;;3.58;1.80;;;20.80;99.90;;;;;;4915601;29;20126;-91
2022/06/02 11:54:25;;;;;;;3.20;1.75;;;20.60;99.90;;;;;;4915638;29;20134;-91
2022/06/02 11:57:13;;;;;;;2.55;1.73;;;21.00;99.90;;;;;;4880287;29;20150;-91
2022/06/02 11:59:47;;;;;;;1.40;1.30;;;21.10;99.90;;;;;;4913058;29;20046;-92
2022/06/02 12:02:44;;;;;;;2.38;1.90;;;21.30;99.90;;;;;;4915770;29;20392;-91
2022/06/02 12:05:35;;;;;;;4.22;1.70;;;20.50;99.90;;;;;;4914667;29;20086;-89
2022/06/02 12:08:07;;;;;;;6.57;1.63;;;20.60;99.90;;;;;;4915605;29;20062;-92
2022/06/02 12:10:41;;;;;;;2.17;1.52;;;20.90;99.90;;;;;;4919480;29;20040;-91
2022/06/02 12:13:07;;;;;;;1.63;1.52;;;21.20;99.90;;;;;;4915799;29;20050;-90
2022/06/02 12:15:42;;;;;;;3.35;1.60;;;21.90;99.90;;;;;;4899941;29;20138;-91
2022/06/02 12:18:38;;;;;;;2.22;1.40;;;22.00;99.90;;;;;;4931072;29;20480;-93
2022/06/02 12:21:22;;;;;;;1.60;1.50;;;21.40;99.90;;;;;;4887117;29;20130;-90
2022/06/02 12:23:50;;;;;;;;;;;21.30;99.90;;;;;;4904043;29;20079;-91
2022/06/02 12:26:38;;;;;;;2.28;1.40;;;21.00;99.90;;;;;;4902263;29;20332;-94
2022/06/02 12:29:07;;;;;;;2.83;1.50;;;21.30;99.90;;;;;;4917406;29;20048;-90
2022/06/02 12:31:38;;;;;;;1.55;1.45;;;21.50;99.90;;;;;;4902312;29;20062;-88
2022/06/02 12:34:34;;;;;;;2.33;1.55;;;21.10;99.90;;;;;;4918128;29;20054;-88
2022/06/02 12:37:16;;;;;;;2.72;1.45;;;20.70;99.90;;;;;;4902342;29;20491;-92
2022/06/02 12:40:01;;;;;;;2.03;1.40;;;21.20;99.90;;;;;;4922077;29;20051;-91
2022/06/02 12:43:04;;;;;;;2.30;1.42;;;21.20;99.90;;;;;;4937667;29;20116;-91
2022/06/02 12:45:57;;;;;;;4.57;1.70;;;21.10;99.90;;;;;;4921126;29;20056;-90
2022/06/02 12:48:37;;;;;;;2.05;1.50;;;20.90;99.90;;;;;;4918279;29;20051;-91
2022/06/02 12:51:29;;;;;;;2.63;1.30;;;21.10;99.90;;;;;;4917433;29;20080;-92
2022/06/02 12:54:16;;;;;;;2.47;1.70;;;21.20;99.90;;;;;;4897419;29;20050;-92
2022/06/02 12:57:04;;;;;;;2.17;1.50;;;20.90;99.90;;;;;;4916518;29;20055;-93
2022/06/02 12:59:53;;;;;;;2.75;1.42;;;21.40;99.90;;;;;;4901390;29;20044;-93
2022/06/02 13:02:43;;;;;;;1.70;1.60;;;21.80;99.90;;;;;;4899745;29;20046;-89
2022/06/02 13:05:24;;;;;;;2.20;1.30;;;22.00;99.90;;;;;;4918029;29;20083;-89
2022/06/02 13:08:28;;;;;;;1.85;1.48;;;22.00;99.90;;;;;;4904573;29;20142;-90
2022/06/02 13:11:03;;;;;;;3.83;1.50;;;21.10;99.90;;;;;;4912951;29;20077;-91
2022/06/02 13:13:44;;;;;;;1.73;1.63;;;21.00;99.90;;;;;;4922749;29;20051;-90
2022/06/02 13:16:19;;;;;;;2.88;1.70;;;21.00;99.90;;;;;;4913865;29;20055;-91
2022/06/02 13:19:16;;;;;;;5.70;1.92;;;21.20;99.90;;;;;;4928063;29;20071;-90
2022/06/02 13:21:44;;;;;;;1.65;1.45;;;21.50;99.90;;;;;;4916943;29;20102;-91
2022/06/02 13:24:24;;;;;;;3.22;1.70;;;21.30;99.90;;;;;;4917262;29;20039;-91
2022/06/02 13:27:31;;;;;;;3.20;1.85;;;20.60;99.90;;;;;;4896675;29;20059;-92
2022/06/02 13:30:15;;;;;;;5.60;2.65;;;20.50;99.90;;;;;;4900483;29;20047;-89
2022/06/02 13:32:53;;;;;;;2.17;1.88;;;20.40;99.90;;;;;;4913818;29;20044;-90
2022/06/02 13:35:40;;;;;;;3.45;1.73;;;20.40;99.90;;;;;;4916005;29;20050;-89
2022/06/02 13:38:22;;;;;;;1.95;1.80;;;20.50;99.90;;;;;;4916560;29;20052;-92
2022/06/02 13:41:04;;;;;;;3.00;2.15;;;20.30;99.90;;;;;;4885786;29;20043;-87
2022/06/02 13:44:08;;;;;;;4.82;1.70;;;20.30;99.90;;;;;;4910272;29;20087;-90
2022/06/02 13:47:15;;;;;;;5.75;1.70;;;19.90;99.90;;;;;;4866166;29;20103;-90
2022/06/02 13:50:15;;;;;;;2.40;1.75;;;19.80;99.90;;;;;;4880337;29;20060;-92
2022/06/02 13:53:02;;;;;;;2.70;1.90;;;20.10;99.90;;;;;;4892962;29;20052;-92
2022/06/02 13:59:03;;;;;;;2.42;1.63;;;19.90;99.90;;;;;;4881077;29;20056;-91
2022/06/02 14:01:58;;;;;;;2.38;1.65;;;19.90;99.90;;;;;;4892028;29;20076;-92
2022/06/02 14:04:36;;;;;;;3.35;2.10;;;20.20;99.90;;;;;;4878080;29;20045;-92
2022/06/02 14:07:11;;;;;;;4.55;1.90;;;20.10;99.90;;;;;;4878663;29;20087;-91
2022/06/02 14:09:43;;;;;;;4.18;1.60;;;19.80;99.90;;;;;;4894489;29;20393;-93
2022/06/02 14:12:20;;;;;;;2.00;1.90;;;19.90;99.90;;;;;;4847842;29;20380;-92
2022/06/02 14:15:06;;;;;;;5.13;1.70;;;19.80;99.90;;;;;;4879314;29;20044;-91
2022/06/02 14:18:18;;;;;;;4.43;2.03;;;19.90;99.90;;;;;;4880552;29;20051;-91
2022/06/02 14:20:47;;;;;;;2.25;1.85;;;19.80;99.90;;;;;;4872790;29;20051;-91
2022/06/02 14:23:44;;;;;;;3.47;1.80;;;20.00;99.90;;;;;;4893242;29;20040;-91
2022/06/02 14:26:21;;;;;;;2.03;1.58;;;20.10;99.90;;;;;;4865594;29;20052;-89
2022/06/02 14:29:31;;;;;;;2.80;1.80;;;20.30;99.90;;;;;;4889621;29;20056;-92